Terminal Aerodrome Forecast
Issued by NWS

Home | Current Version | Previous Version | Text Only | Print | Product List | Glossary On
Versions: 1 2 3 4 5 6 7 8 9 10 11 12 13 14 15 16 17 18 19
000
FTUS42 KMLB 250540
TAFSFB
TAF
KSFB 250540Z 2506/2606 24007KT P6SM FEW025 BKN060 BKN100
     FM251400 20007KT P6SM SCT030 SCT080 SCT250
     FM252100 18008KT P6SM VCTS SCT040CB BKN060 BKN100
     FM260200 VRB04KT P6SM VCSH SCT025 BKN040 OVC060=

USA.gov is the U.S. government's official web portal to all federal, state and local government web resources and services.